createdAt,value
2018-12-15T00:02:25.255Z,2.83
2018-12-15T00:04:53.912Z,2.90
2018-12-15T00:07:22.588Z,3.13
2018-12-15T00:09:51.424Z,2.90
2018-12-15T00:12:20.066Z,3.63
2018-12-15T00:14:48.915Z,3.00
2018-12-15T00:17:17.525Z,2.63
2018-12-15T00:19:46.221Z,2.93
2018-12-15T00:22:14.886Z,2.97
2018-12-15T00:24:43.498Z,2.90
2018-12-15T00:27:12.117Z,2.73
2018-12-15T00:29:40.781Z,2.80
2018-12-15T00:32:09.837Z,3.03
2018-12-15T00:34:38.476Z,2.80
2018-12-15T00:37:07.205Z,2.67
2018-12-15T00:39:36.286Z,2.80
2018-12-15T00:42:04.885Z,3.03
2018-12-15T00:44:33.463Z,3.27
2018-12-15T00:47:02.076Z,3.10
2018-12-15T00:49:30.699Z,3.30
2018-12-15T00:51:59.373Z,3.13
2018-12-15T00:54:28.012Z,3.13
2018-12-15T00:56:56.780Z,3.33
2018-12-15T00:59:25.413Z,3.30
2018-12-15T01:01:54.012Z,3.17
2018-12-15T01:04:28.017Z,3.03
2018-12-15T01:06:56.995Z,3.20
2018-12-15T01:09:25.628Z,2.90
2018-12-15T01:11:54.233Z,3.20
2018-12-15T01:14:22.823Z,2.80
2018-12-15T01:16:51.488Z,3.33
2018-12-15T01:19:20.083Z,3.00
2018-12-15T01:21:48.716Z,2.83
2018-12-15T01:24:17.372Z,2.70
2018-12-15T01:26:45.961Z,2.97
2018-12-15T01:29:14.866Z,3.10
2018-12-15T01:31:43.540Z,2.67
2018-12-15T01:34:12.215Z,2.80
2018-12-15T01:36:40.840Z,2.80
2018-12-15T01:39:09.740Z,2.90
2018-12-15T01:41:38.607Z,2.73
2018-12-15T01:44:07.174Z,3.00
2018-12-15T01:46:35.840Z,2.80
2018-12-15T01:49:04.430Z,3.10
2018-12-15T01:51:33.351Z,2.90
2018-12-15T01:54:02.255Z,2.60
2018-12-15T01:56:30.844Z,2.90
2018-12-15T01:58:59.440Z,2.63
2018-12-15T02:01:28.116Z,2.30
2018-12-15T02:03:56.702Z,2.67
2018-12-15T02:06:25.291Z,2.70
2018-12-15T02:08:53.863Z,2.73
2018-12-15T02:11:22.556Z,2.90
2018-12-15T02:13:51.129Z,2.70
2018-12-15T02:16:19.738Z,2.63
2018-12-15T02:18:48.491Z,2.80
2018-12-15T02:21:17.487Z,2.70
2018-12-15T02:23:46.077Z,3.00
2018-12-15T02:26:14.719Z,2.70
2018-12-15T02:28:43.571Z,2.80
2018-12-15T02:31:12.146Z,2.37
2018-12-15T02:33:41.015Z,2.63
2018-12-15T02:36:09.661Z,3.23
2018-12-15T02:38:38.228Z,2.70
2018-12-15T02:41:06.799Z,2.90
2018-12-15T02:43:35.418Z,2.70
2018-12-15T02:46:04.095Z,3.07
2018-12-15T02:48:32.667Z,3.03
2018-12-15T02:51:01.268Z,2.83
2018-12-15T02:53:29.851Z,2.63
2018-12-15T02:55:58.738Z,3.30
2018-12-15T02:58:27.396Z,2.93
2018-12-15T03:00:56.000Z,2.73
2018-12-15T03:03:24.637Z,2.87
2018-12-15T03:05:53.270Z,3.10
2018-12-15T03:08:22.335Z,3.40
2018-12-15T03:10:51.024Z,2.57
2018-12-15T03:13:19.597Z,3.03
2018-12-15T03:15:48.195Z,3.10
2018-12-15T03:18:16.815Z,3.13
2018-12-15T03:20:56.544Z,3.27
2018-12-15T03:23:25.204Z,2.90
2018-12-15T03:25:53.777Z,3.13
2018-12-15T03:28:22.346Z,2.90
2018-12-15T03:30:50.992Z,3.20
2018-12-15T03:33:19.579Z,2.83
2018-12-15T03:35:48.304Z,2.80
2018-12-15T03:38:16.900Z,2.93
2018-12-15T03:40:45.474Z,3.10
2018-12-15T03:43:14.117Z,2.97
2018-12-15T03:45:42.698Z,3.23
2018-12-15T03:48:11.300Z,3.33
2018-12-15T03:50:39.956Z,3.00
2018-12-15T03:53:08.539Z,3.03
2018-12-15T03:55:37.109Z,3.43
2018-12-15T03:58:05.770Z,3.63
2018-12-15T04:00:34.398Z,3.00
2018-12-15T04:03:03.164Z,3.63
2018-12-15T04:05:31.834Z,3.77
2018-12-15T04:08:00.523Z,3.20
2018-12-15T04:10:29.120Z,3.47
2018-12-15T04:12:57.748Z,3.30
2018-12-15T04:15:26.383Z,3.23
2018-12-15T04:17:55.133Z,3.63
2018-12-15T04:20:23.760Z,3.73
2018-12-15T04:22:52.360Z,3.53
2018-12-15T04:25:20.959Z,3.47
2018-12-15T04:27:49.604Z,3.20
2018-12-15T04:30:18.217Z,3.40
2018-12-15T04:32:46.780Z,3.43
2018-12-15T04:35:15.464Z,3.10
2018-12-15T04:37:44.108Z,3.47
2018-12-15T04:40:13.094Z,3.63
2018-12-15T04:42:41.950Z,3.80
2018-12-15T04:45:10.536Z,3.30
2018-12-15T04:47:39.098Z,3.37
2018-12-15T04:50:07.872Z,3.40
2018-12-15T04:52:36.455Z,3.60
2018-12-15T04:55:05.457Z,3.60
2018-12-15T04:57:34.053Z,3.70
2018-12-15T05:00:03.523Z,3.67
2018-12-15T05:02:32.162Z,3.53
2018-12-15T05:05:00.813Z,3.80
2018-12-15T05:07:29.465Z,3.30
2018-12-15T05:09:58.113Z,3.90
2018-12-15T05:12:26.921Z,3.60
2018-12-15T05:14:55.654Z,3.80
2018-12-15T05:17:24.240Z,3.50
2018-12-15T05:19:52.823Z,3.60
2018-12-15T05:22:21.511Z,4.00
2018-12-15T05:24:50.298Z,3.40
2018-12-15T05:27:19.142Z,3.53
2018-12-15T05:29:47.783Z,3.87
2018-12-15T05:32:16.397Z,3.20
2018-12-15T05:34:44.969Z,3.57
2018-12-15T05:37:13.664Z,3.20
2018-12-15T05:39:45.215Z,3.50
2018-12-15T05:42:14.128Z,3.53
2018-12-15T05:44:42.730Z,3.47
2018-12-15T05:47:11.399Z,3.20
2018-12-15T05:49:39.993Z,3.50
2018-12-15T05:52:08.599Z,3.63
2018-12-15T05:54:37.217Z,2.90
2018-12-15T05:57:05.804Z,3.37
2018-12-15T05:59:34.480Z,3.67
2018-12-15T06:02:04.963Z,3.50
2018-12-15T06:04:33.598Z,3.30
2018-12-15T06:07:02.193Z,3.60
2018-12-15T06:09:31.054Z,3.60
2018-12-15T06:11:59.634Z,3.50
2018-12-15T06:14:28.220Z,3.33
2018-12-15T06:16:56.877Z,4.20
2018-12-15T06:19:25.462Z,4.43
2018-12-15T06:21:54.082Z,4.20
2018-12-15T06:24:23.082Z,4.70
2018-12-15T06:26:51.666Z,4.80
2018-12-15T06:29:20.262Z,4.80
2018-12-15T06:31:48.902Z,4.70
2018-12-15T06:34:17.835Z,4.93
2018-12-15T06:36:47.239Z,4.30
2018-12-15T06:39:16.117Z,5.17
2018-12-15T06:41:44.702Z,4.50
2018-12-15T06:44:13.299Z,5.17
2018-12-15T06:46:42.184Z,5.13
2018-12-15T06:49:10.758Z,5.53
2018-12-15T06:51:39.725Z,5.23
2018-12-15T06:54:08.326Z,5.17
2018-12-15T06:56:36.916Z,5.53
2018-12-15T06:59:05.542Z,6.07
2018-12-15T07:01:34.181Z,6.17
2018-12-15T07:04:02.784Z,6.77
2018-12-15T07:06:31.427Z,6.03
2018-12-15T07:09:00.080Z,6.70
2018-12-15T07:11:28.822Z,6.70
2018-12-15T07:13:57.438Z,7.03
2018-12-15T07:16:26.203Z,6.97
2018-12-15T07:18:54.808Z,6.93
2018-12-15T07:21:23.425Z,6.10
2018-12-15T07:23:52.071Z,6.57
2018-12-15T07:26:20.655Z,6.47
2018-12-15T07:28:49.247Z,6.67
2018-12-15T07:31:17.831Z,7.00
2018-12-15T07:33:46.577Z,6.27
2018-12-15T07:36:15.231Z,6.37
2018-12-15T07:38:43.805Z,6.63
2018-12-15T07:41:12.452Z,6.73
2018-12-15T07:43:41.097Z,6.90
2018-12-15T07:46:09.719Z,6.80
2018-12-15T07:48:38.298Z,7.30
2018-12-15T07:51:07.061Z,6.97
2018-12-15T07:53:35.746Z,6.77
2018-12-15T07:56:05.199Z,6.70
2018-12-15T07:58:34.174Z,7.10
2018-12-15T08:01:02.774Z,7.20
2018-12-15T08:03:31.371Z,6.33
2018-12-15T08:05:59.948Z,7.00
2018-12-15T08:08:28.635Z,7.00
2018-12-15T08:11:02.599Z,7.13
2018-12-15T08:13:33.143Z,6.80
2018-12-15T08:16:01.757Z,6.87
2018-12-15T08:18:30.370Z,6.87
2018-12-15T08:20:58.967Z,7.13
2018-12-15T08:23:27.745Z,6.93
2018-12-15T08:25:56.356Z,6.97
2018-12-15T08:28:25.370Z,6.50
2018-12-15T08:30:54.295Z,6.70
2018-12-15T08:33:22.879Z,6.77
2018-12-15T08:35:51.513Z,6.47
2018-12-15T08:38:20.119Z,6.07
2018-12-15T08:40:48.761Z,5.50
2018-12-15T08:43:17.424Z,5.97
2018-12-15T08:45:46.030Z,6.07
2018-12-15T08:48:15.581Z,5.70
2018-12-15T08:50:44.841Z,5.63
2018-12-15T08:53:13.479Z,5.37
2018-12-15T08:55:42.097Z,5.00
2018-12-15T08:58:11.034Z,5.13
2018-12-15T09:00:39.640Z,5.50
2018-12-15T09:03:08.358Z,5.53
2018-12-15T09:05:36.963Z,5.77
2018-12-15T09:08:05.549Z,5.00
2018-12-15T09:10:34.156Z,5.87
2018-12-15T09:13:02.802Z,5.37
2018-12-15T09:15:31.436Z,5.90
2018-12-15T09:18:00.073Z,5.50
2018-12-15T09:20:28.679Z,5.63
2018-12-15T09:22:57.288Z,5.37
2018-12-15T09:25:25.927Z,4.90
2018-12-15T09:27:54.664Z,5.20
2018-12-15T09:30:23.345Z,5.10
2018-12-15T09:32:51.989Z,5.00
2018-12-15T09:35:20.584Z,4.60
2018-12-15T09:37:49.171Z,4.83
2018-12-15T09:40:17.776Z,4.47
2018-12-15T09:42:46.414Z,4.40
2018-12-15T09:45:15.057Z,4.23
2018-12-15T09:47:43.771Z,4.67
2018-12-15T09:50:12.376Z,4.37
2018-12-15T09:52:41.012Z,4.27
2018-12-15T09:55:09.770Z,4.30
2018-12-15T09:57:38.332Z,4.63
2018-12-15T10:00:07.585Z,4.17
2018-12-15T10:02:36.188Z,4.20
2018-12-15T10:05:05.626Z,4.50
2018-12-15T10:07:34.758Z,4.70
2018-12-15T10:10:03.556Z,4.70
2018-12-15T10:12:32.543Z,5.10
2018-12-15T10:15:01.674Z,4.83
2018-12-15T10:17:30.519Z,4.43
2018-12-15T10:19:59.946Z,4.60
2018-12-15T10:22:29.032Z,4.30
2018-12-15T10:24:57.924Z,4.53
2018-12-15T10:27:27.740Z,4.97
2018-12-15T10:30:01.822Z,4.77
2018-12-15T10:32:35.678Z,4.63
2018-12-15T10:35:05.120Z,4.50
2018-12-15T10:37:34.008Z,4.77
2018-12-15T10:40:02.899Z,4.43
2018-12-15T10:42:31.734Z,4.43
2018-12-15T10:45:00.793Z,4.50
2018-12-15T10:47:29.743Z,4.93
2018-12-15T10:49:58.715Z,4.90
2018-12-15T10:52:27.455Z,4.70
2018-12-15T10:54:56.110Z,7.30
2018-12-15T10:57:24.868Z,6.10
2018-12-15T10:59:54.471Z,5.77
2018-12-15T11:02:23.571Z,6.30
2018-12-15T11:04:52.199Z,8.73
2018-12-15T11:07:20.813Z,6.87
2018-12-15T11:09:49.404Z,5.80
2018-12-15T11:12:18.327Z,6.00
2018-12-15T11:14:46.951Z,6.13
2018-12-15T11:17:15.837Z,6.10
2018-12-15T11:19:44.518Z,6.27
2018-12-15T11:22:13.476Z,6.53
2018-12-15T11:24:42.447Z,6.53
2018-12-15T11:27:11.516Z,6.90
2018-12-15T11:29:40.378Z,6.77
2018-12-15T11:32:09.336Z,6.07
2018-12-15T11:34:38.327Z,6.60
2018-12-15T11:37:07.246Z,6.00
2018-12-15T11:39:36.258Z,6.43
2018-12-15T11:42:05.191Z,6.23
2018-12-15T11:44:34.218Z,16.20
2018-12-15T11:47:03.181Z,7.17
2018-12-15T11:49:32.037Z,6.37
2018-12-15T11:52:00.653Z,6.57
2018-12-15T11:54:29.676Z,6.70
2018-12-15T11:56:58.881Z,6.73
2018-12-15T11:59:27.502Z,10.10
2018-12-15T12:01:56.422Z,8.60
2018-12-15T12:04:26.218Z,7.50
2018-12-15T12:06:55.310Z,6.80
2018-12-15T12:09:24.447Z,6.43
2018-12-15T12:11:53.378Z,5.70
2018-12-15T12:14:22.279Z,6.27
2018-12-15T12:16:51.109Z,6.67
2018-12-15T12:19:20.110Z,6.27
2018-12-15T12:21:49.135Z,5.53
2018-12-15T12:24:17.987Z,5.77
2018-12-15T12:26:46.990Z,5.60
2018-12-15T12:29:16.395Z,5.73
2018-12-15T12:31:45.396Z,5.50
2018-12-15T12:34:14.239Z,5.20
2018-12-15T12:36:43.007Z,5.43
2018-12-15T12:39:12.002Z,4.97
2018-12-15T12:41:40.886Z,5.60
2018-12-15T12:44:09.831Z,5.70
2018-12-15T12:46:38.865Z,5.50
2018-12-15T12:49:07.818Z,5.50
2018-12-15T12:51:36.764Z,5.43
2018-12-15T12:54:05.822Z,5.20
2018-12-15T12:56:34.811Z,5.23
2018-12-15T12:59:04.002Z,5.67
2018-12-15T13:01:32.690Z,5.40
2018-12-15T13:04:02.288Z,5.00
2018-12-15T13:06:31.082Z,5.90
2018-12-15T13:09:00.006Z,4.93
2018-12-15T13:11:28.801Z,5.20
2018-12-15T13:13:57.692Z,4.93
2018-12-15T13:16:26.486Z,4.97
2018-12-15T13:18:56.049Z,5.70
2018-12-15T13:21:26.001Z,5.63
2018-12-15T13:23:55.067Z,7.17
2018-12-15T13:26:23.967Z,5.70
2018-12-15T13:28:53.051Z,5.87
2018-12-15T13:31:22.050Z,5.43
2018-12-15T13:33:50.948Z,5.50
2018-12-15T13:36:20.161Z,5.90
2018-12-15T13:38:49.440Z,5.80
2018-12-15T13:41:18.438Z,5.50
2018-12-15T13:43:47.435Z,5.73
2018-12-15T13:46:16.422Z,4.97
2018-12-15T13:48:45.350Z,5.97
2018-12-15T13:51:14.345Z,5.67
2018-12-15T13:53:43.412Z,5.37
2018-12-15T13:56:12.629Z,5.40
2018-12-15T13:58:41.653Z,5.57
2018-12-15T14:01:10.633Z,5.17
2018-12-15T14:03:39.918Z,5.50
2018-12-15T14:06:09.091Z,4.77
2018-12-15T14:08:38.008Z,5.30
2018-12-15T14:11:07.077Z,5.57
2018-12-15T14:13:36.155Z,5.30
2018-12-15T14:16:04.966Z,5.30
2018-12-15T14:18:34.051Z,5.23
2018-12-15T14:21:02.977Z,5.17
2018-12-15T14:23:31.946Z,4.87
2018-12-15T14:26:03.060Z,4.93
2018-12-15T14:28:31.969Z,4.77
2018-12-15T14:31:00.616Z,5.00
2018-12-15T14:33:29.251Z,5.00
2018-12-15T14:35:58.204Z,4.77
2018-12-15T14:38:26.898Z,5.03
2018-12-15T14:40:55.515Z,4.90
2018-12-15T14:43:24.228Z,4.63
2018-12-15T14:45:52.932Z,4.97
2018-12-15T14:48:21.565Z,5.10
2018-12-15T14:50:50.209Z,5.03
2018-12-15T14:53:18.899Z,4.83
2018-12-15T14:55:47.708Z,4.77
2018-12-15T14:58:16.753Z,4.87
2018-12-15T15:00:45.701Z,4.70
2018-12-15T15:03:14.434Z,5.67
2018-12-15T15:05:43.090Z,5.33
2018-12-15T15:08:11.996Z,4.90
2018-12-15T15:10:40.649Z,5.47
2018-12-15T15:13:09.274Z,5.80
2018-12-15T15:15:37.930Z,5.37
2018-12-15T15:18:07.362Z,5.27
2018-12-15T15:20:36.071Z,5.50
2018-12-15T15:23:04.728Z,5.50
2018-12-15T15:25:33.420Z,5.90
2018-12-15T15:28:02.038Z,5.57
2018-12-15T15:30:30.757Z,4.97
2018-12-15T15:32:59.467Z,5.80
2018-12-15T15:35:28.155Z,5.63
2018-12-15T15:37:56.819Z,5.70
2018-12-15T15:40:25.464Z,5.07
2018-12-15T15:42:54.172Z,4.90
2018-12-15T15:45:22.834Z,6.33
2018-12-15T15:47:51.471Z,6.17
2018-12-15T15:50:20.305Z,5.50
2018-12-15T15:52:48.971Z,4.97
2018-12-15T15:55:17.640Z,4.77
2018-12-15T15:57:46.518Z,5.40
2018-12-15T16:00:15.345Z,5.00
2018-12-15T16:02:44.334Z,5.70
2018-12-15T16:05:13.141Z,5.10
2018-12-15T16:07:41.802Z,5.33
2018-12-15T16:10:11.444Z,5.00
2018-12-15T16:12:40.154Z,5.30
2018-12-15T16:15:09.698Z,5.13
2018-12-15T16:17:38.372Z,5.23
2018-12-15T16:20:09.591Z,5.47
2018-12-15T16:22:38.307Z,5.60
2018-12-15T16:25:07.215Z,5.70
2018-12-15T16:27:36.525Z,5.50
2018-12-15T16:30:07.504Z,5.33
2018-12-15T16:32:36.252Z,5.13
2018-12-15T16:35:06.085Z,5.67
2018-12-15T16:37:34.793Z,5.43
2018-12-15T16:40:04.188Z,5.57
2018-12-15T16:42:32.868Z,5.93
2018-12-15T16:45:01.616Z,5.30
2018-12-15T16:47:30.274Z,5.70
2018-12-15T16:49:59.031Z,5.73
2018-12-15T16:52:28.121Z,6.23
2018-12-15T16:54:57.129Z,7.33
2018-12-15T16:57:26.259Z,6.50
2018-12-15T16:59:55.189Z,5.70
2018-12-15T17:02:23.860Z,5.70
2018-12-15T17:04:52.526Z,5.50
2018-12-15T17:07:21.341Z,5.87
2018-12-15T17:09:49.993Z,5.47
2018-12-15T17:12:18.668Z,6.23
2018-12-15T17:14:47.405Z,5.63
2018-12-15T17:17:16.046Z,5.83
2018-12-15T17:19:44.761Z,5.70
2018-12-15T17:22:13.486Z,5.60
2018-12-15T17:24:42.143Z,5.87
2018-12-15T17:27:13.017Z,6.10
2018-12-15T17:29:41.732Z,6.13
2018-12-15T17:32:10.479Z,5.97
2018-12-15T17:34:39.151Z,6.00
2018-12-15T17:37:07.896Z,6.13
2018-12-15T17:39:37.023Z,6.07
2018-12-15T17:42:05.742Z,6.13
2018-12-15T17:44:34.392Z,5.87
2018-12-15T17:47:03.558Z,5.67
2018-12-15T17:49:32.524Z,6.43
2018-12-15T17:52:01.162Z,6.40
2018-12-15T17:54:29.818Z,5.90
2018-12-15T17:56:58.842Z,5.87
2018-12-15T17:59:27.528Z,5.80
2018-12-15T18:01:56.171Z,6.20
2018-12-15T18:04:25.084Z,6.13
2018-12-15T18:06:53.890Z,6.30
2018-12-15T18:09:22.697Z,5.83
2018-12-15T18:11:51.546Z,6.53
2018-12-15T18:14:20.270Z,6.30
2018-12-15T18:16:49.286Z,6.37
2018-12-15T18:19:18.180Z,6.40
2018-12-15T18:21:46.889Z,6.30
2018-12-15T18:24:15.535Z,6.63
2018-12-15T18:26:44.606Z,6.50
2018-12-15T18:29:13.287Z,6.37
2018-12-15T18:31:42.220Z,6.33
2018-12-15T18:34:10.865Z,6.37
2018-12-15T18:36:39.648Z,6.77
2018-12-15T18:39:08.509Z,6.67
2018-12-15T18:41:37.243Z,6.30
2018-12-15T18:44:05.960Z,6.67
2018-12-15T18:46:34.659Z,6.60
2018-12-15T18:49:03.291Z,7.10
2018-12-15T18:51:32.042Z,6.23
2018-12-15T18:54:00.793Z,6.10
2018-12-15T18:56:29.723Z,6.50
2018-12-15T18:58:58.950Z,7.03
2018-12-15T19:01:27.700Z,7.07
2018-12-15T19:03:56.927Z,6.37
2018-12-15T19:06:25.860Z,7.00
2018-12-15T19:08:54.940Z,7.07
2018-12-15T19:11:23.638Z,6.97
2018-12-15T19:13:52.400Z,6.77
2018-12-15T19:16:21.103Z,6.70
2018-12-15T19:18:49.908Z,7.30
2018-12-15T19:21:22.892Z,7.10
2018-12-15T19:23:49.281Z,7.57
2018-12-15T19:26:18.379Z,7.10
2018-12-15T19:28:47.370Z,7.00
2018-12-15T19:31:16.485Z,7.00
2018-12-15T19:33:45.393Z,7.43
2018-12-15T19:36:14.437Z,7.33
2018-12-15T19:38:43.867Z,7.43
2018-12-15T19:41:12.590Z,7.00
2018-12-15T19:43:41.266Z,7.90
2018-12-15T19:46:09.977Z,7.50
2018-12-15T19:48:38.729Z,7.37
2018-12-15T19:51:07.467Z,7.87
2018-12-15T19:53:36.648Z,7.53
2018-12-15T19:56:05.489Z,8.13
2018-12-15T19:58:34.244Z,7.43
2018-12-15T20:01:02.944Z,7.27
2018-12-15T20:03:31.606Z,8.00
2018-12-15T20:06:00.333Z,8.03
2018-12-15T20:08:29.235Z,7.93
2018-12-15T20:10:57.926Z,7.30
2018-12-15T20:13:26.584Z,7.27
2018-12-15T20:15:55.516Z,8.03
2018-12-15T20:18:24.187Z,6.80
2018-12-15T20:20:52.853Z,7.73
2018-12-15T20:23:21.532Z,7.30
2018-12-15T20:25:50.172Z,7.13
2018-12-15T20:28:19.321Z,6.90
2018-12-15T20:30:48.308Z,7.37
2018-12-15T20:33:17.340Z,7.00
2018-12-15T20:35:46.009Z,7.13
2018-12-15T20:38:14.721Z,6.73
2018-12-15T20:40:43.440Z,6.67
2018-12-15T20:43:12.112Z,6.20
2018-12-15T20:45:40.784Z,6.67
2018-12-15T20:48:09.880Z,7.00
2018-12-15T20:50:38.653Z,7.33
2018-12-15T20:53:07.414Z,6.50
2018-12-15T20:55:36.572Z,7.13
2018-12-15T20:58:06.000Z,7.13
2018-12-15T21:00:34.835Z,6.83
2018-12-15T21:03:03.841Z,6.63
2018-12-15T21:05:36.744Z,7.30
2018-12-15T21:08:03.265Z,7.07
2018-12-15T21:10:31.966Z,7.13
2018-12-15T21:13:00.645Z,7.17
2018-12-15T21:15:31.649Z,7.70
2018-12-15T21:18:00.653Z,7.10
2018-12-15T21:20:29.339Z,7.70
2018-12-15T21:22:58.405Z,7.43
2018-12-15T21:25:33.382Z,7.53
2018-12-15T21:28:02.092Z,8.33
2018-12-15T21:30:30.733Z,8.27
2018-12-15T21:32:59.409Z,7.83
2018-12-15T21:35:28.072Z,6.70
2018-12-15T21:37:56.793Z,7.93
2018-12-15T21:40:32.054Z,7.60
2018-12-15T21:43:00.703Z,6.70
2018-12-15T21:45:29.325Z,7.60
2018-12-15T21:47:58.386Z,7.50
2018-12-15T21:50:27.037Z,7.67
2018-12-15T21:52:55.801Z,7.57
2018-12-15T21:55:24.466Z,7.43
2018-12-15T21:57:53.166Z,7.37
2018-12-15T22:00:21.816Z,7.73
2018-12-15T22:02:50.470Z,7.60
2018-12-15T22:05:19.169Z,7.40
2018-12-15T22:07:47.789Z,6.90
2018-12-15T22:10:16.455Z,7.47
2018-12-15T22:12:45.116Z,7.17
2018-12-15T22:15:13.881Z,7.53
2018-12-15T22:17:42.578Z,7.20
2018-12-15T22:20:11.815Z,6.77
2018-12-15T22:22:41.051Z,7.17
2018-12-15T22:25:09.705Z,6.80
2018-12-15T22:27:38.453Z,7.57
2018-12-15T22:30:08.314Z,7.00
2018-12-15T22:32:37.483Z,6.63
2018-12-15T22:35:06.878Z,6.60
2018-12-15T22:37:35.592Z,6.50
2018-12-15T22:40:04.880Z,6.73
2018-12-15T22:42:33.598Z,6.40
2018-12-15T22:45:02.775Z,6.03
2018-12-15T22:47:31.410Z,5.87
2018-12-15T22:50:00.257Z,6.63
2018-12-15T22:52:28.976Z,5.87
2018-12-15T22:54:58.534Z,6.50
2018-12-15T22:57:27.192Z,6.17
2018-12-15T22:59:55.812Z,5.83
2018-12-15T23:02:24.826Z,5.83
2018-12-15T23:04:54.727Z,5.97
2018-12-15T23:07:23.381Z,6.47
2018-12-15T23:09:52.397Z,5.90
2018-12-15T23:12:21.072Z,6.10
2018-12-15T23:14:49.699Z,5.90
2018-12-15T23:17:18.398Z,5.73
2018-12-15T23:19:47.284Z,5.87
2018-12-15T23:22:16.443Z,6.03
2018-12-15T23:24:45.615Z,5.87
2018-12-15T23:27:14.245Z,6.37
2018-12-15T23:29:43.236Z,6.10
2018-12-15T23:32:11.917Z,5.60
2018-12-15T23:34:40.558Z,6.10
2018-12-15T23:37:09.166Z,6.00
2018-12-15T23:39:37.811Z,6.20
2018-12-15T23:42:06.423Z,5.40
2018-12-15T23:44:35.065Z,5.87
2018-12-15T23:47:03.890Z,5.97
2018-12-15T23:49:32.516Z,5.80
2018-12-15T23:52:01.159Z,6.30
2018-12-15T23:54:29.837Z,6.20
2018-12-15T23:56:58.635Z,5.93
2018-12-15T23:59:27.275Z,6.13
